sensor_id;sensor_type;location;lat;lon;timestamp;P1;durP1;ratioP1;P2;durP2;ratioP2
7833;SDS011;3962;42.696;23.354;2022-08-26T00:01:47;10.67;;;5.00;;
7833;SDS011;3962;42.696;23.354;2022-08-26T00:04:14;7.00;;;4.17;;
7833;SDS011;3962;42.696;23.354;2022-08-26T00:06:42;9.57;;;4.67;;
7833;SDS011;3962;42.696;23.354;2022-08-26T00:09:08;8.77;;;4.23;;
7833;SDS011;3962;42.696;23.354;2022-08-26T00:11:35;8.23;;;4.10;;
7833;SDS011;3962;42.696;23.354;2022-08-26T00:14:03;8.77;;;4.40;;
7833;SDS011;3962;42.696;23.354;2022-08-26T00:16:30;8.30;;;4.33;;
7833;SDS011;3962;42.696;23.354;2022-08-26T00:18:57;9.07;;;4.27;;
7833;SDS011;3962;42.696;23.354;2022-08-26T00:21:24;8.37;;;4.10;;
7833;SDS011;3962;42.696;23.354;2022-08-26T00:23:51;11.73;;;4.50;;
7833;SDS011;3962;42.696;23.354;2022-08-26T00:26:18;10.13;;;3.30;;
7833;SDS011;3962;42.696;23.354;2022-08-26T00:28:45;8.17;;;3.93;;
7833;SDS011;3962;42.696;23.354;2022-08-26T00:31:13;10.83;;;4.30;;
7833;SDS011;3962;42.696;23.354;2022-08-26T00:33:40;8.57;;;4.00;;
7833;SDS011;3962;42.696;23.354;2022-08-26T00:36:07;12.70;;;4.40;;
7833;SDS011;3962;42.696;23.354;2022-08-26T00:38:34;7.90;;;3.50;;
7833;SDS011;3962;42.696;23.354;2022-08-26T00:41:02;10.03;;;4.40;;
7833;SDS011;3962;42.696;23.354;2022-08-26T00:43:31;10.23;;;4.13;;
7833;SDS011;3962;42.696;23.354;2022-08-26T00:46:00;9.27;;;3.87;;
7833;SDS011;3962;42.696;23.354;2022-08-26T00:48:34;13.93;;;4.20;;
7833;SDS011;3962;42.696;23.354;2022-08-26T00:51:03;13.83;;;4.70;;
7833;SDS011;3962;42.696;23.354;2022-08-26T00:53:35;15.17;;;4.77;;
7833;SDS011;3962;42.696;23.354;2022-08-26T00:56:09;9.10;;;5.00;;
7833;SDS011;3962;42.696;23.354;2022-08-26T00:58:40;12.80;;;5.00;;
7833;SDS011;3962;42.696;23.354;2022-08-26T01:01:09;14.70;;;5.00;;
7833;SDS011;3962;42.696;23.354;2022-08-26T01:03:38;15.80;;;5.40;;
7833;SDS011;3962;42.696;23.354;2022-08-26T01:06:07;12.60;;;5.23;;
7833;SDS011;3962;42.696;23.354;2022-08-26T01:08:34;12.90;;;5.27;;
7833;SDS011;3962;42.696;23.354;2022-08-26T01:11:01;10.40;;;6.57;;
7833;SDS011;3962;42.696;23.354;2022-08-26T01:13:29;13.03;;;5.83;;
7833;SDS011;3962;42.696;23.354;2022-08-26T01:15:57;22.43;;;5.93;;
7833;SDS011;3962;42.696;23.354;2022-08-26T01:18:27;11.67;;;5.40;;
7833;SDS011;3962;42.696;23.354;2022-08-26T01:20:59;11.70;;;6.70;;
7833;SDS011;3962;42.696;23.354;2022-08-26T01:23:35;9.93;;;5.23;;
7833;SDS011;3962;42.696;23.354;2022-08-26T01:26:05;11.80;;;4.80;;
7833;SDS011;3962;42.696;23.354;2022-08-26T01:28:37;11.67;;;5.80;;
7833;SDS011;3962;42.696;23.354;2022-08-26T01:31:06;12.00;;;4.83;;
7833;SDS011;3962;42.696;23.354;2022-08-26T01:33:37;11.90;;;5.63;;
7833;SDS011;3962;42.696;23.354;2022-08-26T01:36:09;16.73;;;5.37;;
7833;SDS011;3962;42.696;23.354;2022-08-26T01:38:38;8.80;;;4.80;;
7833;SDS011;3962;42.696;23.354;2022-08-26T01:41:07;15.33;;;4.57;;
7833;SDS011;3962;42.696;23.354;2022-08-26T01:43:35;7.27;;;4.30;;
7833;SDS011;3962;42.696;23.354;2022-08-26T01:46:05;10.63;;;4.40;;
7833;SDS011;3962;42.696;23.354;2022-08-26T01:48:33;11.30;;;4.30;;
7833;SDS011;3962;42.696;23.354;2022-08-26T01:51:02;12.07;;;5.23;;
7833;SDS011;3962;42.696;23.354;2022-08-26T01:53:30;12.60;;;5.03;;
7833;SDS011;3962;42.696;23.354;2022-08-26T01:55:59;7.33;;;4.00;;
7833;SDS011;3962;42.696;23.354;2022-08-26T01:58:31;10.93;;;4.70;;
7833;SDS011;3962;42.696;23.354;2022-08-26T02:01:02;8.77;;;4.10;;
7833;SDS011;3962;42.696;23.354;2022-08-26T02:03:29;6.73;;;3.80;;
7833;SDS011;3962;42.696;23.354;2022-08-26T02:05:57;13.13;;;3.53;;
7833;SDS011;3962;42.696;23.354;2022-08-26T02:08:26;13.67;;;4.17;;
7833;SDS011;3962;42.696;23.354;2022-08-26T02:10:56;9.97;;;3.97;;
7833;SDS011;3962;42.696;23.354;2022-08-26T02:13:25;9.17;;;4.67;;
7833;SDS011;3962;42.696;23.354;2022-08-26T02:15:55;9.57;;;4.20;;
7833;SDS011;3962;42.696;23.354;2022-08-26T02:18:24;7.73;;;4.13;;
7833;SDS011;3962;42.696;23.354;2022-08-26T02:20:53;8.77;;;3.77;;
7833;SDS011;3962;42.696;23.354;2022-08-26T02:23:22;9.30;;;4.03;;
7833;SDS011;3962;42.696;23.354;2022-08-26T02:25:51;12.17;;;4.20;;
7833;SDS011;3962;42.696;23.354;2022-08-26T02:28:23;13.87;;;4.80;;
7833;SDS011;3962;42.696;23.354;2022-08-26T02:30:56;19.87;;;4.20;;
7833;SDS011;3962;42.696;23.354;2022-08-26T02:33:22;10.57;;;3.40;;
7833;SDS011;3962;42.696;23.354;2022-08-26T02:35:49;13.77;;;4.10;;
7833;SDS011;3962;42.696;23.354;2022-08-26T02:38:16;14.33;;;4.40;;
7833;SDS011;3962;42.696;23.354;2022-08-26T02:40:43;15.77;;;4.17;;
7833;SDS011;3962;42.696;23.354;2022-08-26T02:43:10;9.70;;;4.30;;
7833;SDS011;3962;42.696;23.354;2022-08-26T02:45:39;13.93;;;3.83;;
7833;SDS011;3962;42.696;23.354;2022-08-26T02:48:07;9.10;;;4.17;;
7833;SDS011;3962;42.696;23.354;2022-08-26T02:50:37;12.17;;;3.77;;
7833;SDS011;3962;42.696;23.354;2022-08-26T02:53:04;11.17;;;4.20;;
7833;SDS011;3962;42.696;23.354;2022-08-26T02:55:32;12.40;;;4.70;;
7833;SDS011;3962;42.696;23.354;2022-08-26T02:57:59;8.50;;;4.60;;
7833;SDS011;3962;42.696;23.354;2022-08-26T03:00:26;12.70;;;4.73;;
7833;SDS011;3962;42.696;23.354;2022-08-26T03:02:55;8.00;;;4.27;;
7833;SDS011;3962;42.696;23.354;2022-08-26T03:05:23;17.60;;;4.83;;
7833;SDS011;3962;42.696;23.354;2022-08-26T03:07:50;8.97;;;4.40;;
7833;SDS011;3962;42.696;23.354;2022-08-26T03:10:17;8.70;;;4.30;;
7833;SDS011;3962;42.696;23.354;2022-08-26T03:12:44;10.33;;;4.63;;
7833;SDS011;3962;42.696;23.354;2022-08-26T03:15:12;7.10;;;4.07;;
7833;SDS011;3962;42.696;23.354;2022-08-26T03:17:40;10.33;;;4.43;;
7833;SDS011;3962;42.696;23.354;2022-08-26T03:20:09;8.40;;;4.20;;
7833;SDS011;3962;42.696;23.354;2022-08-26T03:22:37;9.37;;;3.90;;
7833;SDS011;3962;42.696;23.354;2022-08-26T03:25:05;8.70;;;3.60;;
7833;SDS011;3962;42.696;23.354;2022-08-26T03:27:34;11.67;;;4.10;;
7833;SDS011;3962;42.696;23.354;2022-08-26T03:30:02;10.97;;;4.60;;
7833;SDS011;3962;42.696;23.354;2022-08-26T03:32:47;8.83;;;3.83;;
7833;SDS011;3962;42.696;23.354;2022-08-26T03:35:16;9.73;;;3.83;;
7833;SDS011;3962;42.696;23.354;2022-08-26T03:37:43;8.40;;;3.70;;
7833;SDS011;3962;42.696;23.354;2022-08-26T03:40:10;10.67;;;3.53;;
7833;SDS011;3962;42.696;23.354;2022-08-26T03:42:38;9.53;;;4.10;;
7833;SDS011;3962;42.696;23.354;2022-08-26T03:45:07;8.83;;;3.70;;
7833;SDS011;3962;42.696;23.354;2022-08-26T03:47:36;17.30;;;5.53;;
7833;SDS011;3962;42.696;23.354;2022-08-26T03:50:03;9.03;;;3.73;;
7833;SDS011;3962;42.696;23.354;2022-08-26T03:52:33;12.80;;;3.73;;
7833;SDS011;3962;42.696;23.354;2022-08-26T03:54:59;9.57;;;4.17;;
7833;SDS011;3962;42.696;23.354;2022-08-26T03:57:27;13.27;;;4.40;;
7833;SDS011;3962;42.696;23.354;2022-08-26T03:59:53;10.30;;;4.20;;
7833;SDS011;3962;42.696;23.354;2022-08-26T04:02:20;10.40;;;4.53;;
7833;SDS011;3962;42.696;23.354;2022-08-26T04:04:47;10.60;;;4.13;;
7833;SDS011;3962;42.696;23.354;2022-08-26T04:07:14;15.23;;;4.97;;
7833;SDS011;3962;42.696;23.354;2022-08-26T04:09:42;9.70;;;4.33;;
7833;SDS011;3962;42.696;23.354;2022-08-26T04:12:09;11.57;;;4.40;;
7833;SDS011;3962;42.696;23.354;2022-08-26T04:14:36;20.30;;;4.90;;
7833;SDS011;3962;42.696;23.354;2022-08-26T04:17:04;17.30;;;5.10;;
7833;SDS011;3962;42.696;23.354;2022-08-26T04:19:30;11.90;;;4.83;;
7833;SDS011;3962;42.696;23.354;2022-08-26T04:21:58;9.07;;;4.73;;
7833;SDS011;3962;42.696;23.354;2022-08-26T04:24:25;10.93;;;4.60;;
7833;SDS011;3962;42.696;23.354;2022-08-26T04:26:54;11.50;;;4.63;;
7833;SDS011;3962;42.696;23.354;2022-08-26T04:29:22;12.00;;;5.00;;
7833;SDS011;3962;42.696;23.354;2022-08-26T04:31:50;22.60;;;8.17;;
7833;SDS011;3962;42.696;23.354;2022-08-26T04:34:18;14.47;;;5.60;;
7833;SDS011;3962;42.696;23.354;2022-08-26T04:36:46;11.00;;;4.33;;
7833;SDS011;3962;42.696;23.354;2022-08-26T04:39:13;10.97;;;4.60;;
7833;SDS011;3962;42.696;23.354;2022-08-26T04:41:41;14.60;;;4.60;;
7833;SDS011;3962;42.696;23.354;2022-08-26T04:44:09;10.20;;;4.50;;
7833;SDS011;3962;42.696;23.354;2022-08-26T04:46:36;11.07;;;4.30;;
7833;SDS011;3962;42.696;23.354;2022-08-26T04:49:04;15.67;;;4.33;;
7833;SDS011;3962;42.696;23.354;2022-08-26T04:51:32;9.70;;;4.37;;
7833;SDS011;3962;42.696;23.354;2022-08-26T04:53:59;17.10;;;5.30;;
7833;SDS011;3962;42.696;23.354;2022-08-26T04:56:27;14.43;;;4.23;;
7833;SDS011;3962;42.696;23.354;2022-08-26T04:58:56;11.63;;;4.27;;
7833;SDS011;3962;42.696;23.354;2022-08-26T05:01:25;13.17;;;4.43;;
7833;SDS011;3962;42.696;23.354;2022-08-26T05:03:52;9.73;;;4.20;;
7833;SDS011;3962;42.696;23.354;2022-08-26T05:06:19;14.97;;;4.20;;
7833;SDS011;3962;42.696;23.354;2022-08-26T05:08:46;17.43;;;4.70;;
7833;SDS011;3962;42.696;23.354;2022-08-26T05:11:13;13.53;;;4.87;;
7833;SDS011;3962;42.696;23.354;2022-08-26T05:13:40;23.90;;;4.77;;
7833;SDS011;3962;42.696;23.354;2022-08-26T05:16:07;14.23;;;4.43;;
7833;SDS011;3962;42.696;23.354;2022-08-26T05:18:38;9.67;;;4.43;;
7833;SDS011;3962;42.696;23.354;2022-08-26T05:21:07;15.87;;;5.33;;
7833;SDS011;3962;42.696;23.354;2022-08-26T05:23:42;17.57;;;4.53;;
7833;SDS011;3962;42.696;23.354;2022-08-26T05:26:08;13.93;;;4.20;;
7833;SDS011;3962;42.696;23.354;2022-08-26T05:28:35;12.40;;;4.97;;
7833;SDS011;3962;42.696;23.354;2022-08-26T05:31:09;14.40;;;4.93;;
7833;SDS011;3962;42.696;23.354;2022-08-26T05:33:39;10.37;;;4.17;;
7833;SDS011;3962;42.696;23.354;2022-08-26T05:36:06;11.10;;;4.77;;
7833;SDS011;3962;42.696;23.354;2022-08-26T05:38:34;10.77;;;4.13;;
7833;SDS011;3962;42.696;23.354;2022-08-26T05:41:01;9.80;;;3.97;;
7833;SDS011;3962;42.696;23.354;2022-08-26T05:43:28;15.77;;;5.07;;
7833;SDS011;3962;42.696;23.354;2022-08-26T05:45:55;6.10;;;3.77;;
7833;SDS011;3962;42.696;23.354;2022-08-26T05:48:22;12.03;;;5.93;;
7833;SDS011;3962;42.696;23.354;2022-08-26T05:50:51;11.10;;;4.30;;
7833;SDS011;3962;42.696;23.354;2022-08-26T05:53:19;12.17;;;4.93;;
7833;SDS011;3962;42.696;23.354;2022-08-26T05:55:47;9.17;;;5.00;;
7833;SDS011;3962;42.696;23.354;2022-08-26T05:58:16;10.87;;;3.97;;
7833;SDS011;3962;42.696;23.354;2022-08-26T06:00:45;13.87;;;5.10;;
7833;SDS011;3962;42.696;23.354;2022-08-26T06:03:21;15.23;;;4.93;;
7833;SDS011;3962;42.696;23.354;2022-08-26T06:05:47;12.93;;;5.23;;
7833;SDS011;3962;42.696;23.354;2022-08-26T06:08:16;17.47;;;4.80;;
7833;SDS011;3962;42.696;23.354;2022-08-26T06:10:45;11.83;;;4.60;;
7833;SDS011;3962;42.696;23.354;2022-08-26T06:13:13;16.43;;;4.70;;
7833;SDS011;3962;42.696;23.354;2022-08-26T06:15:41;11.90;;;4.67;;
7833;SDS011;3962;42.696;23.354;2022-08-26T06:18:10;12.07;;;4.37;;
7833;SDS011;3962;42.696;23.354;2022-08-26T06:20:38;16.87;;;5.27;;
7833;SDS011;3962;42.696;23.354;2022-08-26T06:23:08;14.80;;;4.47;;
7833;SDS011;3962;42.696;23.354;2022-08-26T06:25:54;11.03;;;4.60;;
7833;SDS011;3962;42.696;23.354;2022-08-26T06:28:21;20.07;;;5.40;;
7833;SDS011;3962;42.696;23.354;2022-08-26T06:30:50;12.90;;;5.87;;
7833;SDS011;3962;42.696;23.354;2022-08-26T06:33:17;17.17;;;5.83;;
7833;SDS011;3962;42.696;23.354;2022-08-26T06:35:45;18.60;;;5.10;;
7833;SDS011;3962;42.696;23.354;2022-08-26T06:38:13;12.13;;;5.20;;
7833;SDS011;3962;42.696;23.354;2022-08-26T06:40:40;15.10;;;5.00;;
7833;SDS011;3962;42.696;23.354;2022-08-26T06:43:10;8.50;;;4.30;;
7833;SDS011;3962;42.696;23.354;2022-08-26T06:45:37;10.63;;;4.40;;
7833;SDS011;3962;42.696;23.354;2022-08-26T06:48:04;12.20;;;4.77;;
7833;SDS011;3962;42.696;23.354;2022-08-26T06:50:32;11.67;;;4.77;;
7833;SDS011;3962;42.696;23.354;2022-08-26T06:53:00;11.33;;;4.70;;
7833;SDS011;3962;42.696;23.354;2022-08-26T06:55:27;12.20;;;4.00;;
7833;SDS011;3962;42.696;23.354;2022-08-26T06:57:54;12.80;;;4.77;;
7833;SDS011;3962;42.696;23.354;2022-08-26T07:00:23;13.87;;;4.50;;
7833;SDS011;3962;42.696;23.354;2022-08-26T07:02:50;11.70;;;5.70;;
7833;SDS011;3962;42.696;23.354;2022-08-26T07:05:16;10.70;;;4.87;;
7833;SDS011;3962;42.696;23.354;2022-08-26T07:07:45;17.27;;;6.20;;
7833;SDS011;3962;42.696;23.354;2022-08-26T07:10:12;10.17;;;3.97;;
7833;SDS011;3962;42.696;23.354;2022-08-26T07:12:39;10.53;;;4.67;;
7833;SDS011;3962;42.696;23.354;2022-08-26T07:15:06;12.10;;;4.63;;
7833;SDS011;3962;42.696;23.354;2022-08-26T07:17:35;10.33;;;4.73;;
7833;SDS011;3962;42.696;23.354;2022-08-26T07:20:02;12.33;;;5.17;;
7833;SDS011;3962;42.696;23.354;2022-08-26T07:22:31;14.17;;;4.50;;
7833;SDS011;3962;42.696;23.354;2022-08-26T07:24:58;10.20;;;4.90;;
7833;SDS011;3962;42.696;23.354;2022-08-26T07:27:25;22.73;;;6.33;;
7833;SDS011;3962;42.696;23.354;2022-08-26T07:29:54;18.80;;;5.10;;
7833;SDS011;3962;42.696;23.354;2022-08-26T07:32:22;10.10;;;5.00;;
7833;SDS011;3962;42.696;23.354;2022-08-26T07:34:50;17.30;;;5.90;;
7833;SDS011;3962;42.696;23.354;2022-08-26T07:37:17;16.70;;;6.60;;
7833;SDS011;3962;42.696;23.354;2022-08-26T07:39:44;14.83;;;4.77;;
7833;SDS011;3962;42.696;23.354;2022-08-26T07:42:11;9.30;;;4.40;;
7833;SDS011;3962;42.696;23.354;2022-08-26T07:44:40;13.90;;;5.53;;
7833;SDS011;3962;42.696;23.354;2022-08-26T07:47:08;12.10;;;5.43;;
7833;SDS011;3962;42.696;23.354;2022-08-26T07:49:35;11.47;;;4.33;;
7833;SDS011;3962;42.696;23.354;2022-08-26T07:52:05;16.00;;;5.30;;
7833;SDS011;3962;42.696;23.354;2022-08-26T07:54:33;13.77;;;5.63;;
7833;SDS011;3962;42.696;23.354;2022-08-26T07:57:01;12.13;;;4.70;;
7833;SDS011;3962;42.696;23.354;2022-08-26T07:59:29;10.13;;;4.60;;
7833;SDS011;3962;42.696;23.354;2022-08-26T08:01:55;8.17;;;4.10;;
7833;SDS011;3962;42.696;23.354;2022-08-26T08:04:24;15.13;;;5.67;;
7833;SDS011;3962;42.696;23.354;2022-08-26T08:06:51;17.90;;;4.83;;
7833;SDS011;3962;42.696;23.354;2022-08-26T08:09:20;13.97;;;5.20;;
7833;SDS011;3962;42.696;23.354;2022-08-26T08:11:48;9.97;;;5.50;;
7833;SDS011;3962;42.696;23.354;2022-08-26T08:14:15;11.97;;;4.20;;
7833;SDS011;3962;42.696;23.354;2022-08-26T08:16:44;9.40;;;4.20;;
7833;SDS011;3962;42.696;23.354;2022-08-26T08:19:11;12.60;;;4.90;;
7833;SDS011;3962;42.696;23.354;2022-08-26T08:21:37;15.07;;;5.00;;
7833;SDS011;3962;42.696;23.354;2022-08-26T08:24:05;12.53;;;4.63;;
7833;SDS011;3962;42.696;23.354;2022-08-26T08:26:34;20.17;;;5.37;;
7833;SDS011;3962;42.696;23.354;2022-08-26T08:29:00;11.70;;;4.30;;
7833;SDS011;3962;42.696;23.354;2022-08-26T08:31:28;13.43;;;4.30;;
7833;SDS011;3962;42.696;23.354;2022-08-26T08:33:57;13.40;;;5.53;;
7833;SDS011;3962;42.696;23.354;2022-08-26T08:36:24;15.70;;;4.40;;
7833;SDS011;3962;42.696;23.354;2022-08-26T08:38:51;13.03;;;4.07;;
7833;SDS011;3962;42.696;23.354;2022-08-26T08:41:23;12.37;;;4.40;;
7833;SDS011;3962;42.696;23.354;2022-08-26T08:44:09;11.83;;;5.27;;
7833;SDS011;3962;42.696;23.354;2022-08-26T08:46:43;11.60;;;4.33;;
7833;SDS011;3962;42.696;23.354;2022-08-26T08:49:12;7.63;;;4.30;;
7833;SDS011;3962;42.696;23.354;2022-08-26T08:51:40;22.30;;;4.10;;
7833;SDS011;3962;42.696;23.354;2022-08-26T08:54:13;12.33;;;3.97;;
7833;SDS011;3962;42.696;23.354;2022-08-26T08:56:41;14.60;;;4.43;;
7833;SDS011;3962;42.696;23.354;2022-08-26T08:59:19;7.53;;;4.17;;
7833;SDS011;3962;42.696;23.354;2022-08-26T09:01:52;16.47;;;4.50;;
7833;SDS011;3962;42.696;23.354;2022-08-26T09:07:21;10.50;;;3.80;;
7833;SDS011;3962;42.696;23.354;2022-08-26T09:09:51;9.00;;;4.07;;
7833;SDS011;3962;42.696;23.354;2022-08-26T09:12:22;10.37;;;3.60;;
7833;SDS011;3962;42.696;23.354;2022-08-26T09:14:52;12.57;;;3.67;;
7833;SDS011;3962;42.696;23.354;2022-08-26T09:17:24;8.83;;;2.97;;
7833;SDS011;3962;42.696;23.354;2022-08-26T09:20:02;8.97;;;3.00;;
7833;SDS011;3962;42.696;23.354;2022-08-26T09:22:36;13.43;;;3.23;;
7833;SDS011;3962;42.696;23.354;2022-08-26T09:25:05;9.70;;;4.10;;
7833;SDS011;3962;42.696;23.354;2022-08-26T09:27:35;11.43;;;3.43;;
7833;SDS011;3962;42.696;23.354;2022-08-26T09:30:06;12.00;;;3.57;;
7833;SDS011;3962;42.696;23.354;2022-08-26T09:32:35;11.37;;;3.70;;
7833;SDS011;3962;42.696;23.354;2022-08-26T09:35:03;12.87;;;3.47;;
7833;SDS011;3962;42.696;23.354;2022-08-26T09:37:36;8.23;;;3.03;;
7833;SDS011;3962;42.696;23.354;2022-08-26T09:40:14;12.53;;;3.80;;
7833;SDS011;3962;42.696;23.354;2022-08-26T09:42:43;10.13;;;3.90;;
7833;SDS011;3962;42.696;23.354;2022-08-26T09:45:12;15.50;;;3.80;;
7833;SDS011;3962;42.696;23.354;2022-08-26T09:47:49;7.10;;;3.50;;
7833;SDS011;3962;42.696;23.354;2022-08-26T09:50:19;7.30;;;3.40;;
7833;SDS011;3962;42.696;23.354;2022-08-26T09:53:02;8.27;;;3.30;;
7833;SDS011;3962;42.696;23.354;2022-08-26T09:55:31;13.37;;;3.80;;
7833;SDS011;3962;42.696;23.354;2022-08-26T09:57:59;10.17;;;3.93;;
7833;SDS011;3962;42.696;23.354;2022-08-26T10:00:29;12.90;;;3.40;;
7833;SDS011;3962;42.696;23.354;2022-08-26T10:02:58;15.30;;;3.93;;
7833;SDS011;3962;42.696;23.354;2022-08-26T10:05:29;16.03;;;4.03;;
7833;SDS011;3962;42.696;23.354;2022-08-26T10:07:59;6.23;;;3.50;;
7833;SDS011;3962;42.696;23.354;2022-08-26T10:10:39;13.43;;;4.23;;
7833;SDS011;3962;42.696;23.354;2022-08-26T10:13:11;10.80;;;3.83;;
7833;SDS011;3962;42.696;23.354;2022-08-26T10:15:43;8.63;;;3.73;;
7833;SDS011;3962;42.696;23.354;2022-08-26T10:18:19;8.23;;;3.90;;
7833;SDS011;3962;42.696;23.354;2022-08-26T10:20:54;7.60;;;3.67;;
7833;SDS011;3962;42.696;23.354;2022-08-26T10:23:28;10.17;;;3.27;;
7833;SDS011;3962;42.696;23.354;2022-08-26T10:26:00;10.20;;;3.80;;
7833;SDS011;3962;42.696;23.354;2022-08-26T10:28:34;11.77;;;4.97;;
7833;SDS011;3962;42.696;23.354;2022-08-26T10:31:08;14.80;;;5.03;;
7833;SDS011;3962;42.696;23.354;2022-08-26T10:33:43;9.53;;;5.00;;
7833;SDS011;3962;42.696;23.354;2022-08-26T10:36:12;11.30;;;5.20;;
7833;SDS011;3962;42.696;23.354;2022-08-26T10:38:56;6.90;;;4.23;;
7833;SDS011;3962;42.696;23.354;2022-08-26T10:41:25;15.37;;;5.43;;
7833;SDS011;3962;42.696;23.354;2022-08-26T10:43:57;9.13;;;4.33;;
7833;SDS011;3962;42.696;23.354;2022-08-26T10:46:28;7.90;;;4.00;;
7833;SDS011;3962;42.696;23.354;2022-08-26T10:49:13;9.17;;;4.33;;
7833;SDS011;3962;42.696;23.354;2022-08-26T10:51:44;7.10;;;4.20;;
7833;SDS011;3962;42.696;23.354;2022-08-26T10:54:18;6.20;;;4.27;;
7833;SDS011;3962;42.696;23.354;2022-08-26T10:56:52;10.30;;;4.20;;
7833;SDS011;3962;42.696;23.354;2022-08-26T10:59:27;11.77;;;5.20;;
7833;SDS011;3962;42.696;23.354;2022-08-26T11:02:07;9.83;;;5.70;;
7833;SDS011;3962;42.696;23.354;2022-08-26T11:04:41;7.53;;;4.20;;
7833;SDS011;3962;42.696;23.354;2022-08-26T11:07:29;6.83;;;4.27;;
7833;SDS011;3962;42.696;23.354;2022-08-26T11:10:02;14.83;;;5.90;;
7833;SDS011;3962;42.696;23.354;2022-08-26T11:12:50;11.17;;;4.60;;
7833;SDS011;3962;42.696;23.354;2022-08-26T11:18:40;7.37;;;4.43;;
7833;SDS011;3962;42.696;23.354;2022-08-26T11:30:33;7.37;;;4.50;;
7833;SDS011;3962;42.696;23.354;2022-08-26T11:33:05;8.00;;;4.57;;
7833;SDS011;3962;42.696;23.354;2022-08-26T11:35:45;11.30;;;5.17;;
7833;SDS011;3962;42.696;23.354;2022-08-26T11:38:16;7.93;;;5.10;;
7833;SDS011;3962;42.696;23.354;2022-08-26T11:40:54;5.40;;;4.47;;
7833;SDS011;3962;42.696;23.354;2022-08-26T11:43:33;9.53;;;4.57;;
7833;SDS011;3962;42.696;23.354;2022-08-26T11:46:03;7.93;;;3.93;;
7833;SDS011;3962;42.696;23.354;2022-08-26T11:48:32;11.73;;;4.27;;
7833;SDS011;3962;42.696;23.354;2022-08-26T11:51:03;12.43;;;4.50;;
7833;SDS011;3962;42.696;23.354;2022-08-26T11:53:32;6.97;;;3.87;;
7833;SDS011;3962;42.696;23.354;2022-08-26T11:56:03;7.03;;;3.50;;
7833;SDS011;3962;42.696;23.354;2022-08-26T11:58:31;7.60;;;3.13;;
7833;SDS011;3962;42.696;23.354;2022-08-26T12:01:01;5.73;;;3.27;;
7833;SDS011;3962;42.696;23.354;2022-08-26T12:03:36;8.33;;;3.67;;
7833;SDS011;3962;42.696;23.354;2022-08-26T12:06:14;7.80;;;3.70;;
7833;SDS011;3962;42.696;23.354;2022-08-26T12:08:45;6.70;;;3.53;;
7833;SDS011;3962;42.696;23.354;2022-08-26T12:11:18;9.80;;;3.20;;
7833;SDS011;3962;42.696;23.354;2022-08-26T12:13:54;7.80;;;3.80;;
7833;SDS011;3962;42.696;23.354;2022-08-26T12:16:23;4.73;;;3.13;;
7833;SDS011;3962;42.696;23.354;2022-08-26T12:18:51;4.70;;;3.63;;
7833;SDS011;3962;42.696;23.354;2022-08-26T12:21:20;7.83;;;3.93;;
7833;SDS011;3962;42.696;23.354;2022-08-26T12:23:49;7.90;;;3.70;;
7833;SDS011;3962;42.696;23.354;2022-08-26T12:26:20;8.10;;;4.23;;
7833;SDS011;3962;42.696;23.354;2022-08-26T12:28:51;4.93;;;2.97;;
7833;SDS011;3962;42.696;23.354;2022-08-26T12:31:22;10.47;;;3.13;;
7833;SDS011;3962;42.696;23.354;2022-08-26T12:33:52;7.13;;;3.40;;
7833;SDS011;3962;42.696;23.354;2022-08-26T12:36:22;9.13;;;3.20;;
7833;SDS011;3962;42.696;23.354;2022-08-26T12:38:52;8.73;;;3.10;;
7833;SDS011;3962;42.696;23.354;2022-08-26T12:41:39;6.30;;;3.03;;
7833;SDS011;3962;42.696;23.354;2022-08-26T12:47:06;6.10;;;2.87;;
7833;SDS011;3962;42.696;23.354;2022-08-26T12:49:36;10.10;;;3.30;;
7833;SDS011;3962;42.696;23.354;2022-08-26T12:52:06;10.37;;;3.40;;
7833;SDS011;3962;42.696;23.354;2022-08-26T12:54:53;4.60;;;2.83;;
7833;SDS011;3962;42.696;23.354;2022-08-26T12:57:25;10.40;;;3.10;;
7833;SDS011;3962;42.696;23.354;2022-08-26T12:59:53;6.03;;;3.40;;
7833;SDS011;3962;42.696;23.354;2022-08-26T13:02:35;7.50;;;3.33;;
7833;SDS011;3962;42.696;23.354;2022-08-26T13:05:04;4.43;;;2.73;;
7833;SDS011;3962;42.696;23.354;2022-08-26T13:07:32;7.63;;;3.70;;
7833;SDS011;3962;42.696;23.354;2022-08-26T13:09:59;11.37;;;3.40;;
7833;SDS011;3962;42.696;23.354;2022-08-26T13:12:27;9.73;;;3.67;;
7833;SDS011;3962;42.696;23.354;2022-08-26T13:14:55;4.83;;;2.90;;
7833;SDS011;3962;42.696;23.354;2022-08-26T13:17:24;5.57;;;2.97;;
7833;SDS011;3962;42.696;23.354;2022-08-26T13:19:51;7.07;;;2.60;;
7833;SDS011;3962;42.696;23.354;2022-08-26T13:22:18;8.27;;;2.83;;
7833;SDS011;3962;42.696;23.354;2022-08-26T13:24:50;4.50;;;3.13;;
7833;SDS011;3962;42.696;23.354;2022-08-26T13:27:19;6.73;;;2.80;;
7833;SDS011;3962;42.696;23.354;2022-08-26T13:29:47;10.57;;;2.60;;
7833;SDS011;3962;42.696;23.354;2022-08-26T13:32:14;9.40;;;3.00;;
7833;SDS011;3962;42.696;23.354;2022-08-26T13:34:42;7.63;;;3.13;;
7833;SDS011;3962;42.696;23.354;2022-08-26T13:37:12;5.73;;;2.97;;
7833;SDS011;3962;42.696;23.354;2022-08-26T13:39:39;5.27;;;2.70;;
7833;SDS011;3962;42.696;23.354;2022-08-26T13:42:07;6.30;;;2.50;;
7833;SDS011;3962;42.696;23.354;2022-08-26T13:44:34;8.27;;;2.70;;
7833;SDS011;3962;42.696;23.354;2022-08-26T13:47:03;9.00;;;3.10;;
7833;SDS011;3962;42.696;23.354;2022-08-26T13:49:30;7.03;;;2.43;;
7833;SDS011;3962;42.696;23.354;2022-08-26T13:51:57;6.23;;;2.23;;
7833;SDS011;3962;42.696;23.354;2022-08-26T13:54:24;4.20;;;2.53;;
7833;SDS011;3962;42.696;23.354;2022-08-26T13:56:50;6.20;;;2.90;;
7833;SDS011;3962;42.696;23.354;2022-08-26T13:59:19;5.40;;;2.50;;
7833;SDS011;3962;42.696;23.354;2022-08-26T14:01:45;7.00;;;3.20;;
7833;SDS011;3962;42.696;23.354;2022-08-26T14:04:12;8.67;;;2.50;;
7833;SDS011;3962;42.696;23.354;2022-08-26T14:06:39;6.77;;;2.80;;
7833;SDS011;3962;42.696;23.354;2022-08-26T14:09:06;6.80;;;2.43;;
7833;SDS011;3962;42.696;23.354;2022-08-26T14:11:33;8.63;;;3.33;;
7833;SDS011;3962;42.696;23.354;2022-08-26T14:13:59;4.70;;;2.53;;
7833;SDS011;3962;42.696;23.354;2022-08-26T14:16:28;6.93;;;2.90;;
7833;SDS011;3962;42.696;23.354;2022-08-26T14:18:58;8.97;;;3.27;;
7833;SDS011;3962;42.696;23.354;2022-08-26T14:21:26;6.17;;;2.53;;
7833;SDS011;3962;42.696;23.354;2022-08-26T14:23:55;6.33;;;3.03;;
7833;SDS011;3962;42.696;23.354;2022-08-26T14:26:21;7.47;;;3.10;;
7833;SDS011;3962;42.696;23.354;2022-08-26T14:28:48;3.20;;;2.30;;
7833;SDS011;3962;42.696;23.354;2022-08-26T14:31:15;6.43;;;3.00;;
7833;SDS011;3962;42.696;23.354;2022-08-26T14:33:43;5.53;;;2.50;;
7833;SDS011;3962;42.696;23.354;2022-08-26T14:36:10;4.87;;;2.77;;
7833;SDS011;3962;42.696;23.354;2022-08-26T14:38:57;6.40;;;3.00;;
7833;SDS011;3962;42.696;23.354;2022-08-26T14:41:26;8.20;;;2.73;;
7833;SDS011;3962;42.696;23.354;2022-08-26T14:43:54;6.60;;;3.00;;
7833;SDS011;3962;42.696;23.354;2022-08-26T14:46:24;10.40;;;2.90;;
7833;SDS011;3962;42.696;23.354;2022-08-26T14:48:54;6.47;;;2.73;;
7833;SDS011;3962;42.696;23.354;2022-08-26T14:51:22;5.20;;;2.77;;
7833;SDS011;3962;42.696;23.354;2022-08-26T14:53:49;3.40;;;2.57;;
7833;SDS011;3962;42.696;23.354;2022-08-26T14:56:34;3.83;;;2.53;;
7833;SDS011;3962;42.696;23.354;2022-08-26T14:59:02;4.97;;;3.03;;
7833;SDS011;3962;42.696;23.354;2022-08-26T15:01:29;6.20;;;3.07;;
7833;SDS011;3962;42.696;23.354;2022-08-26T15:03:59;8.77;;;3.03;;
7833;SDS011;3962;42.696;23.354;2022-08-26T15:06:27;4.90;;;2.90;;
7833;SDS011;3962;42.696;23.354;2022-08-26T15:08:54;4.57;;;2.57;;
7833;SDS011;3962;42.696;23.354;2022-08-26T15:11:21;9.83;;;2.70;;
7833;SDS011;3962;42.696;23.354;2022-08-26T15:13:48;6.40;;;2.40;;
7833;SDS011;3962;42.696;23.354;2022-08-26T15:16:15;5.20;;;2.90;;
7833;SDS011;3962;42.696;23.354;2022-08-26T15:18:41;9.67;;;3.17;;
7833;SDS011;3962;42.696;23.354;2022-08-26T15:21:10;6.60;;;3.23;;
7833;SDS011;3962;42.696;23.354;2022-08-26T15:23:37;2.87;;;2.50;;
7833;SDS011;3962;42.696;23.354;2022-08-26T15:26:06;9.27;;;2.90;;